Weather at Fernando Luis Ribas Dominicci Airport

Public forecast

Using degrees Celsius for public forecast. Weather courtesy of forecast.io.

Current aviation weather report (METAR) for Fernando Luis Ribas Dominicci Airport

2024/02/22 11:50 (retrieved 36 minutes ago)

TJIG 221150Z 26010KT 4SM VIS S 2 +RA SCT015 OVC025 22/21 A2997

Closest aviation forecast (TAF) to Fernando Luis Ribas Dominicci Airport

Closest forecast is Luis Munoz Marin International Airport, 5.6 nm (10.3 km) E.

2024/02/22 12:45 (retrieved 0 seconds ago)

TAF TAF TJSJ 221141Z 2212/2312 28006KT P6SM -SHRA VCTS SCT014 BKN030CB OVC050 FM221400 33012G18KT P6SM -RA SCT020 BKN035 OVC060 FM222200 35008KT P6SM VCSH FEW030 BKN050